createdAt,value
2022-10-16T00:02:54.542Z,14.88
2022-10-16T00:06:32.538Z,14.92
2022-10-16T00:10:09.518Z,14.89
2022-10-16T00:13:48.557Z,14.90
2022-10-16T00:17:24.515Z,14.89
2022-10-16T00:21:17.584Z,14.94
2022-10-16T00:24:54.053Z,14.91
2022-10-16T00:28:32.134Z,14.91
2022-10-16T00:32:09.982Z,14.90
2022-10-16T00:35:46.854Z,14.82
2022-10-16T00:39:26.505Z,14.81
2022-10-16T00:43:02.279Z,14.84
2022-10-16T00:46:43.559Z,14.70
2022-10-16T00:50:25.507Z,14.63
2022-10-16T00:54:04.795Z,14.39
2022-10-16T00:57:41.382Z,14.16
2022-10-16T01:01:19.013Z,14.01
2022-10-16T01:04:56.890Z,13.92
2022-10-16T01:08:50.919Z,13.83
2022-10-16T01:12:45.553Z,13.77
2022-10-16T01:16:30.082Z,13.75
2022-10-16T01:20:12.364Z,13.83
2022-10-16T01:24:19.945Z,13.90
2022-10-16T01:27:58.464Z,13.94
2022-10-16T01:31:40.898Z,13.93
2022-10-16T01:35:33.530Z,13.98
2022-10-16T01:39:12.579Z,13.98
2022-10-16T01:43:04.398Z,14.00
2022-10-16T01:46:44.309Z,14.00
2022-10-16T01:50:22.070Z,14.01
2022-10-16T01:54:01.339Z,14.05
2022-10-16T01:57:42.728Z,14.03
2022-10-16T02:01:23.133Z,14.06
2022-10-16T02:05:06.295Z,14.04
2022-10-16T02:08:45.342Z,13.97
2022-10-16T02:12:32.755Z,13.92
2022-10-16T02:16:11.485Z,13.87
2022-10-16T02:19:50.719Z,13.85
2022-10-16T02:23:35.085Z,13.88
2022-10-16T02:27:26.505Z,13.87
2022-10-16T02:31:07.585Z,13.89
2022-10-16T02:34:46.133Z,13.86
2022-10-16T02:38:26.062Z,13.79
2022-10-16T02:42:03.074Z,13.77
2022-10-16T02:45:39.743Z,13.77
2022-10-16T02:49:19.432Z,13.74
2022-10-16T02:52:55.591Z,13.72
2022-10-16T02:56:34.590Z,13.68
2022-10-16T03:00:14.743Z,13.67
2022-10-16T03:03:51.215Z,13.69
2022-10-16T03:07:28.807Z,13.70
2022-10-16T03:11:06.228Z,13.70
2022-10-16T03:14:44.027Z,13.69
2022-10-16T03:18:22.022Z,13.66
2022-10-16T03:21:59.116Z,13.64
2022-10-16T03:25:36.815Z,13.68
2022-10-16T03:29:15.034Z,13.69
2022-10-16T03:32:55.704Z,13.71
2022-10-16T03:36:31.564Z,13.71
2022-10-16T03:40:09.878Z,13.73
2022-10-16T03:43:47.080Z,13.73
2022-10-16T03:47:25.210Z,13.73
2022-10-16T03:51:02.274Z,13.71
2022-10-16T03:54:39.979Z,13.72
2022-10-16T03:58:17.786Z,13.69
2022-10-16T04:01:55.512Z,13.72
2022-10-16T04:05:32.987Z,13.75
2022-10-16T04:09:10.895Z,13.76
2022-10-16T04:12:48.598Z,13.66
2022-10-16T04:16:26.115Z,13.62
2022-10-16T04:20:04.834Z,13.53
2022-10-16T04:23:41.603Z,13.48
2022-10-16T04:27:18.998Z,13.43
2022-10-16T04:30:56.807Z,13.37
2022-10-16T04:34:34.315Z,13.31
2022-10-16T04:38:12.223Z,13.24
2022-10-16T04:41:50.020Z,13.15
2022-10-16T04:45:27.409Z,13.08
2022-10-16T04:49:06.345Z,13.07
2022-10-16T04:52:42.925Z,13.04
2022-10-16T04:56:20.839Z,13.01
2022-10-16T04:59:59.461Z,13.06
2022-10-16T05:03:37.161Z,13.04
2022-10-16T05:07:14.964Z,13.04
2022-10-16T05:10:54.724Z,13.04
2022-10-16T05:14:32.315Z,13.07
2022-10-16T05:18:08.380Z,13.05
2022-10-16T05:21:45.978Z,13.09
2022-10-16T05:25:25.539Z,13.10
2022-10-16T05:29:02.148Z,13.19
2022-10-16T05:32:39.746Z,13.26
2022-10-16T05:36:19.556Z,13.31
2022-10-16T05:39:56.954Z,13.35
2022-10-16T05:43:34.267Z,13.42
2022-10-16T05:47:13.322Z,13.34
2022-10-16T05:50:49.858Z,13.30
2022-10-16T05:54:27.672Z,13.26
2022-10-16T05:58:04.760Z,13.26
2022-10-16T06:01:42.260Z,13.28
2022-10-16T06:05:20.063Z,13.29
2022-10-16T06:08:58.679Z,13.31
2022-10-16T06:12:37.519Z,13.38
2022-10-16T06:16:15.420Z,13.50
2022-10-16T06:19:53.029Z,13.62
2022-10-16T06:23:30.721Z,13.76
2022-10-16T06:27:10.791Z,13.88
2022-10-16T06:30:47.152Z,14.00
2022-10-16T06:34:24.665Z,14.07
2022-10-16T06:38:02.355Z,14.25
2022-10-16T06:41:39.890Z,14.47
2022-10-16T06:45:17.558Z,14.59
2022-10-16T06:48:55.254Z,14.72
2022-10-16T06:52:34.879Z,14.80
2022-10-16T06:56:16.262Z,14.91
2022-10-16T06:59:55.212Z,15.23
2022-10-16T07:03:31.778Z,15.53
2022-10-16T07:07:09.628Z,15.79
2022-10-16T07:10:47.108Z,16.02
2022-10-16T07:14:24.800Z,16.23
2022-10-16T07:18:21.171Z,16.08
2022-10-16T07:21:42.447Z,15.96
2022-10-16T07:25:19.459Z,15.69
2022-10-16T07:28:56.277Z,15.60
2022-10-16T07:32:34.263Z,15.54
2022-10-16T07:36:16.231Z,15.62
2022-10-16T07:39:54.164Z,15.69
2022-10-16T07:43:31.677Z,15.86
2022-10-16T07:47:08.851Z,16.03
2022-10-16T07:50:46.655Z,16.42
2022-10-16T07:54:24.155Z,16.80
2022-10-16T07:58:02.677Z,17.75
2022-10-16T08:01:39.488Z,18.52
2022-10-16T08:05:17.101Z,19.14
2022-10-16T08:08:54.686Z,18.83
2022-10-16T08:12:32.521Z,18.77
2022-10-16T08:16:11.217Z,18.68
2022-10-16T08:19:49.004Z,18.60
2022-10-16T08:23:29.614Z,19.31
2022-10-16T08:27:08.154Z,19.85
2022-10-16T08:30:45.586Z,19.31
2022-10-16T08:34:22.174Z,19.09
2022-10-16T08:38:00.995Z,19.81
2022-10-16T08:42:02.691Z,20.29
2022-10-16T08:45:57.717Z,19.65
2022-10-16T08:49:35.388Z,19.19
2022-10-16T08:53:20.753Z,19.02
2022-10-16T08:56:58.433Z,18.99
2022-10-16T09:00:36.536Z,18.96
2022-10-16T09:04:21.858Z,19.41
2022-10-16T09:07:58.459Z,19.46
2022-10-16T09:11:54.697Z,19.54
2022-10-16T09:15:43.429Z,20.24
2022-10-16T09:19:27.192Z,20.88
2022-10-16T09:23:06.415Z,21.35
2022-10-16T09:26:46.938Z,21.51
2022-10-16T09:30:29.414Z,21.84
2022-10-16T09:34:09.970Z,22.58
2022-10-16T09:37:51.089Z,22.22
2022-10-16T09:41:28.653Z,21.72
2022-10-16T09:45:05.945Z,21.85
2022-10-16T09:48:50.281Z,22.56
2022-10-16T09:52:27.697Z,21.80
2022-10-16T09:56:10.343Z,21.60
2022-10-16T09:59:54.633Z,21.29
2022-10-16T10:03:42.780Z,22.13
2022-10-16T10:07:35.172Z,23.19
2022-10-16T10:11:15.980Z,23.57
2022-10-16T10:15:01.837Z,24.30
2022-10-16T10:18:38.517Z,24.71
2022-10-16T10:22:24.737Z,23.47
2022-10-16T10:26:07.794Z,23.60
2022-10-16T10:29:59.125Z,22.73
2022-10-16T10:33:48.858Z,22.82
2022-10-16T10:38:11.664Z,22.56
2022-10-16T10:42:16.109Z,22.95
2022-10-16T10:46:04.888Z,22.63
2022-10-16T10:49:56.645Z,22.48
2022-10-16T10:54:17.148Z,22.02
2022-10-16T10:58:14.968Z,21.89
2022-10-16T11:02:34.570Z,21.75
2022-10-16T11:10:35.287Z,22.92
2022-10-16T11:14:29.811Z,22.78
2022-10-16T11:18:20.256Z,22.87
2022-10-16T11:22:25.863Z,22.65
2022-10-16T11:26:07.928Z,23.01
2022-10-16T11:30:00.019Z,22.96
2022-10-16T11:34:16.250Z,23.60
2022-10-16T11:37:57.427Z,23.31
2022-10-16T11:41:57.722Z,23.05
2022-10-16T11:45:44.460Z,23.14
2022-10-16T11:49:26.899Z,23.61
2022-10-16T11:53:08.691Z,24.23
2022-10-16T11:56:48.124Z,24.44
2022-10-16T12:00:32.189Z,24.52
2022-10-16T12:04:37.097Z,24.48
2022-10-16T12:08:18.073Z,24.30
2022-10-16T12:11:55.348Z,23.63
2022-10-16T12:19:33.424Z,22.52
2022-10-16T12:23:23.496Z,22.69
2022-10-16T12:27:01.533Z,22.72
2022-10-16T12:30:38.630Z,22.29
2022-10-16T12:34:43.206Z,22.19
2022-10-16T12:38:21.833Z,21.99
2022-10-16T12:42:24.592Z,21.91
2022-10-16T12:46:30.460Z,22.03
2022-10-16T12:50:31.916Z,21.92
2022-10-16T12:54:08.135Z,22.03
2022-10-16T12:58:05.994Z,21.91
2022-10-16T13:01:52.294Z,21.80
2022-10-16T13:06:04.938Z,21.79
2022-10-16T13:09:53.177Z,21.46
2022-10-16T13:13:51.454Z,21.25
2022-10-16T13:17:41.430Z,21.02
2022-10-16T13:21:37.895Z,20.97
2022-10-16T13:25:46.933Z,20.96
2022-10-16T13:29:24.354Z,20.81
2022-10-16T13:33:05.375Z,20.75
2022-10-16T13:36:48.850Z,20.75
2022-10-16T13:40:25.644Z,20.70
2022-10-16T13:44:02.670Z,20.61
2022-10-16T13:47:43.404Z,20.62
2022-10-16T13:51:19.976Z,20.61
2022-10-16T13:55:00.891Z,20.66
2022-10-16T13:58:40.105Z,20.67
2022-10-16T14:02:41.077Z,20.69
2022-10-16T14:05:58.394Z,20.60
2022-10-16T14:09:36.988Z,20.63
2022-10-16T14:13:20.692Z,20.76
2022-10-16T14:16:57.705Z,20.81
2022-10-16T14:20:36.065Z,20.84
2022-10-16T14:24:15.434Z,20.84
2022-10-16T14:28:18.433Z,20.66
2022-10-16T14:32:06.197Z,20.68
2022-10-16T14:35:43.626Z,20.76
2022-10-16T14:39:23.280Z,20.76
2022-10-16T14:43:02.126Z,20.68
2022-10-16T14:46:41.042Z,20.67
2022-10-16T14:50:18.204Z,20.62
2022-10-16T14:54:00.028Z,20.67
2022-10-16T14:57:40.164Z,20.71
2022-10-16T15:01:16.515Z,20.58
2022-10-16T15:04:54.271Z,20.59
2022-10-16T15:08:31.711Z,20.49
2022-10-16T15:12:09.432Z,20.46
2022-10-16T15:15:50.320Z,20.36
2022-10-16T15:19:27.471Z,20.33
2022-10-16T15:23:14.722Z,20.29
2022-10-16T15:26:50.654Z,20.24
2022-10-16T15:30:29.106Z,20.17
2022-10-16T15:34:07.129Z,20.07
2022-10-16T15:37:43.714Z,20.04
2022-10-16T15:41:23.248Z,19.99
2022-10-16T15:45:00.467Z,19.93
2022-10-16T15:48:38.625Z,19.89
2022-10-16T15:52:16.464Z,19.86
2022-10-16T15:55:54.714Z,19.85
2022-10-16T15:59:31.547Z,19.83
2022-10-16T16:03:10.305Z,19.83
2022-10-16T16:06:48.290Z,19.74
2022-10-16T16:10:24.688Z,19.72
2022-10-16T16:14:02.281Z,19.67
2022-10-16T16:17:40.037Z,19.65
2022-10-16T16:21:17.555Z,19.65
2022-10-16T16:24:55.738Z,19.56
2022-10-16T16:28:33.552Z,19.46
2022-10-16T16:32:11.540Z,19.37
2022-10-16T16:35:48.302Z,19.35
2022-10-16T16:39:25.877Z,19.27
2022-10-16T16:43:03.799Z,19.24
2022-10-16T16:46:44.435Z,19.19
2022-10-16T16:50:20.755Z,19.17
2022-10-16T16:53:58.255Z,19.14
2022-10-16T16:57:36.099Z,19.09
2022-10-16T17:01:21.946Z,19.04
2022-10-16T17:04:58.734Z,18.97
2022-10-16T17:08:39.865Z,18.87
2022-10-16T17:12:16.167Z,18.79
2022-10-16T17:15:55.204Z,18.70
2022-10-16T17:19:32.055Z,18.63
2022-10-16T17:23:10.597Z,18.56
2022-10-16T17:26:49.346Z,18.49
2022-10-16T17:30:26.913Z,18.45
2022-10-16T17:34:06.287Z,18.44
2022-10-16T17:37:42.435Z,18.39
2022-10-16T17:41:23.110Z,18.31
2022-10-16T17:45:00.117Z,18.23
2022-10-16T17:48:41.080Z,18.24
2022-10-16T17:52:17.026Z,18.20
2022-10-16T17:55:59.653Z,18.18
2022-10-16T17:59:41.555Z,18.15
2022-10-16T18:03:17.623Z,18.10
2022-10-16T18:07:00.677Z,18.13
2022-10-16T18:10:47.582Z,18.10
2022-10-16T18:14:30.548Z,18.06
2022-10-16T18:18:06.815Z,18.05
2022-10-16T18:21:46.014Z,18.00
2022-10-16T18:25:22.492Z,17.95
2022-10-16T18:29:01.375Z,17.85
2022-10-16T18:32:38.298Z,17.83
2022-10-16T18:36:17.119Z,17.72
2022-10-16T18:39:54.113Z,17.69
2022-10-16T18:43:34.631Z,17.65
2022-10-16T18:47:11.665Z,17.63
2022-10-16T18:50:49.483Z,17.56
2022-10-16T18:54:27.075Z,17.51
2022-10-16T18:58:03.884Z,17.47
2022-10-16T19:01:42.767Z,17.41
2022-10-16T19:05:20.194Z,17.35
2022-10-16T19:08:57.809Z,17.21
2022-10-16T19:12:54.538Z,17.15
2022-10-16T19:16:52.406Z,17.08
2022-10-16T19:20:49.511Z,17.00
2022-10-16T19:24:46.837Z,16.98
2022-10-16T19:28:30.243Z,16.95
2022-10-16T19:32:07.669Z,16.92
2022-10-16T19:36:13.616Z,16.87
2022-10-16T19:40:11.400Z,16.77
2022-10-16T19:44:15.274Z,16.71
2022-10-16T19:48:15.582Z,16.60
2022-10-16T19:52:12.007Z,16.43
2022-10-16T19:56:21.976Z,16.37
2022-10-16T19:59:59.345Z,16.31
2022-10-16T20:03:40.734Z,16.25
2022-10-16T20:07:19.260Z,16.19
2022-10-16T20:10:59.108Z,16.07
2022-10-16T20:14:51.984Z,15.95
2022-10-16T20:18:30.801Z,15.90
2022-10-16T20:22:08.103Z,15.85
2022-10-16T20:25:48.400Z,15.80
2022-10-16T20:29:45.620Z,15.79
2022-10-16T20:33:42.843Z,15.73
2022-10-16T20:37:31.549Z,15.70
2022-10-16T20:41:31.921Z,15.73
2022-10-16T20:45:29.985Z,15.72
2022-10-16T20:49:40.296Z,15.78
2022-10-16T20:53:39.527Z,15.81
2022-10-16T20:57:36.799Z,15.82
2022-10-16T21:01:36.700Z,15.82
2022-10-16T21:05:34.820Z,15.81
2022-10-16T21:09:33.916Z,15.81
2022-10-16T21:13:32.084Z,15.69
2022-10-16T21:17:32.015Z,15.54
2022-10-16T21:21:33.324Z,15.40
2022-10-16T21:25:30.651Z,15.31
2022-10-16T21:29:29.247Z,15.21
2022-10-16T21:33:27.022Z,15.14
2022-10-16T21:37:25.180Z,15.06
2022-10-16T21:41:26.626Z,14.94
2022-10-16T21:45:24.646Z,14.85
2022-10-16T21:49:21.883Z,14.79
2022-10-16T21:53:20.500Z,14.71
2022-10-16T21:57:18.820Z,14.57
2022-10-16T22:01:18.819Z,14.45
2022-10-16T22:05:15.534Z,14.32
2022-10-16T22:09:14.758Z,14.25
2022-10-16T22:13:12.417Z,14.24
2022-10-16T22:17:09.244Z,14.15
2022-10-16T22:21:09.557Z,14.07
2022-10-16T22:25:07.100Z,14.05
2022-10-16T22:29:05.438Z,14.03
2022-10-16T22:33:04.536Z,13.99
2022-10-16T22:37:01.634Z,13.95
2022-10-16T22:41:05.196Z,13.93
2022-10-16T22:45:02.382Z,13.89
2022-10-16T22:48:59.408Z,13.89
2022-10-16T22:52:57.224Z,13.82
2022-10-16T22:56:55.715Z,13.68
2022-10-16T23:00:53.213Z,13.54
2022-10-16T23:04:50.328Z,13.47
2022-10-16T23:08:55.202Z,13.37
2022-10-16T23:12:52.838Z,13.33
2022-10-16T23:16:50.826Z,13.35
2022-10-16T23:20:47.976Z,13.39
2022-10-16T23:24:44.870Z,13.40
2022-10-16T23:28:22.718Z,13.39
2022-10-16T23:32:20.214Z,13.35
2022-10-16T23:36:20.230Z,13.34
2022-10-16T23:40:18.726Z,13.32
2022-10-16T23:44:17.629Z,13.29
2022-10-16T23:48:15.700Z,13.28
2022-10-16T23:52:13.065Z,13.25
2022-10-16T23:56:13.036Z,13.21
